createdAt,value
2018-01-18T00:01:25.319Z,99.90
2018-01-18T00:03:54.883Z,99.90
2018-01-18T00:06:25.867Z,99.90
2018-01-18T00:08:56.404Z,99.90
2018-01-18T00:11:25.904Z,99.90
2018-01-18T00:13:55.397Z,99.90
2018-01-18T00:16:25.652Z,99.90
2018-01-18T00:18:54.871Z,99.90
2018-01-18T00:21:24.351Z,99.90
2018-01-18T00:23:53.836Z,99.90
2018-01-18T00:26:24.869Z,99.90
2018-01-18T00:28:54.346Z,99.90
2018-01-18T00:31:25.443Z,99.90
2018-01-18T00:33:55.078Z,99.90
2018-01-18T00:36:25.256Z,99.90
2018-01-18T00:38:54.747Z,99.90
2018-01-18T00:41:24.262Z,99.90
2018-01-18T00:43:53.996Z,99.90
2018-01-18T00:46:23.473Z,99.90
2018-01-18T00:48:54.973Z,99.90
2018-01-18T00:51:24.472Z,99.90
2018-01-18T00:53:54.008Z,99.90
2018-01-18T00:56:24.242Z,99.90
2018-01-18T00:58:53.720Z,99.90
2018-01-18T01:01:24.310Z,99.90
2018-01-18T01:03:53.866Z,99.90
2018-01-18T01:06:23.387Z,99.90
2018-01-18T01:08:53.634Z,99.90
2018-01-18T01:11:24.547Z,99.90
2018-01-18T01:13:54.042Z,99.90
2018-01-18T01:16:23.620Z,99.90
2018-01-18T01:18:55.556Z,99.90
2018-01-18T01:21:25.086Z,99.90
2018-01-18T01:23:54.577Z,99.90
2018-01-18T01:26:24.062Z,99.90
2018-01-18T01:28:53.585Z,99.90
2018-01-18T01:31:24.409Z,99.90
2018-01-18T01:33:54.247Z,99.90
2018-01-18T01:36:23.748Z,99.90
2018-01-18T01:38:55.757Z,99.90
2018-01-18T01:41:25.236Z,99.90
2018-01-18T01:43:54.735Z,99.90
2018-01-18T01:46:24.226Z,99.90
2018-01-18T01:48:53.717Z,99.90
2018-01-18T01:51:24.343Z,99.90
2018-01-18T01:53:53.831Z,99.90
2018-01-18T01:56:23.512Z,99.90
2018-01-18T01:58:55.008Z,99.90
2018-01-18T02:01:25.268Z,99.90
2018-01-18T02:03:55.521Z,99.90
2018-01-18T02:06:25.067Z,99.90
2018-01-18T02:08:54.596Z,99.90
2018-01-18T02:11:24.103Z,99.90
2018-01-18T02:13:54.359Z,99.90
2018-01-18T02:16:23.892Z,99.90
2018-01-18T02:18:54.315Z,99.90
2018-01-18T02:21:23.785Z,99.90
2018-01-18T02:23:54.484Z,99.90
2018-01-18T02:26:23.975Z,99.90
2018-01-18T02:28:53.484Z,99.90
2018-01-18T02:31:23.734Z,99.90
2018-01-18T02:33:54.977Z,99.90
2018-01-18T02:36:24.472Z,99.90
2018-01-18T02:38:53.677Z,99.90
2018-01-18T02:41:24.718Z,99.90
2018-01-18T02:43:54.196Z,99.90
2018-01-18T02:46:23.961Z,99.90
2018-01-18T02:48:53.458Z,99.90
2018-01-18T02:51:24.704Z,99.90
2018-01-18T02:53:54.952Z,99.90
2018-01-18T02:56:25.212Z,99.90
2018-01-18T02:58:54.714Z,99.90
2018-01-18T03:01:24.191Z,99.90
2018-01-18T03:03:53.688Z,99.90
2018-01-18T03:06:24.339Z,99.90
2018-01-18T03:08:54.763Z,99.90
2018-01-18T03:11:24.255Z,99.90
2018-01-18T03:13:53.755Z,99.90
2018-01-18T03:16:26.224Z,99.90
2018-01-18T03:18:56.079Z,99.90
2018-01-18T03:21:27.089Z,99.90
2018-01-18T03:23:56.584Z,99.90
2018-01-18T03:26:26.081Z,99.90
2018-01-18T03:28:55.565Z,99.90
2018-01-18T03:31:25.809Z,99.90
2018-01-18T03:33:55.347Z,99.90
2018-01-18T03:36:24.880Z,99.90
2018-01-18T03:38:54.394Z,99.90
2018-01-18T03:41:23.935Z,99.90
2018-01-18T03:43:53.482Z,99.90
2018-01-18T03:46:24.749Z,99.90
2018-01-18T03:48:54.404Z,99.90
2018-01-18T03:51:23.911Z,99.90
2018-01-18T03:53:53.441Z,99.90
2018-01-18T03:56:24.794Z,99.90
2018-01-18T03:58:54.897Z,99.90
2018-01-18T04:01:24.366Z,99.90
2018-01-18T04:03:54.387Z,99.90
2018-01-18T04:06:23.879Z,99.90
2018-01-18T04:08:53.205Z,99.90
2018-01-18T04:11:22.533Z,99.90
2018-01-18T04:13:52.048Z,99.90
2018-01-18T04:16:23.122Z,99.90
2018-01-18T04:18:54.380Z,99.90
2018-01-18T04:21:24.126Z,99.90
2018-01-18T04:23:53.609Z,99.90
2018-01-18T04:26:24.995Z,99.90
2018-01-18T04:28:54.132Z,99.90
2018-01-18T04:31:24.391Z,99.90
2018-01-18T04:33:54.647Z,99.90
2018-01-18T04:36:24.193Z,99.90
2018-01-18T04:38:53.699Z,99.90
2018-01-18T04:41:25.859Z,99.90
2018-01-18T04:43:55.332Z,99.90
2018-01-18T04:46:25.586Z,99.90
2018-01-18T04:48:55.068Z,99.90
2018-01-18T04:51:24.550Z,99.90
2018-01-18T04:53:54.079Z,99.90
2018-01-18T04:56:23.693Z,99.90
2018-01-18T04:58:53.932Z,99.90
2018-01-18T05:01:23.476Z,99.90
2018-01-18T05:03:54.966Z,99.90
2018-01-18T05:06:24.474Z,99.90
2018-01-18T05:08:54.726Z,99.90
2018-01-18T05:11:24.212Z,99.90
2018-01-18T05:13:53.708Z,99.90
2018-01-18T05:16:24.439Z,99.90
2018-01-18T05:18:54.674Z,99.90
2018-01-18T05:21:24.527Z,99.90
2018-01-18T05:23:54.085Z,99.90
2018-01-18T05:26:24.120Z,99.90
2018-01-18T05:28:54.184Z,99.90
2018-01-18T05:31:23.667Z,99.90
2018-01-18T05:33:55.828Z,99.90
2018-01-18T05:36:26.044Z,99.90
2018-01-18T05:38:55.527Z,99.90
2018-01-18T05:41:25.022Z,99.90
2018-01-18T05:43:54.500Z,99.90
2018-01-18T05:46:24.782Z,99.90
2018-01-18T05:48:54.326Z,99.90
2018-01-18T05:51:24.575Z,99.90
2018-01-18T05:53:53.880Z,99.90
2018-01-18T05:56:23.408Z,99.90
2018-01-18T05:58:54.847Z,99.90
2018-01-18T06:01:24.576Z,99.90
2018-01-18T06:03:54.063Z,99.90
2018-01-18T06:06:24.322Z,99.90
2018-01-18T06:08:53.816Z,99.90
2018-01-18T06:11:23.500Z,99.90
2018-01-18T06:13:54.879Z,99.90
2018-01-18T06:16:26.033Z,99.90
2018-01-18T06:18:56.259Z,99.90
2018-01-18T06:21:26.786Z,99.90
2018-01-18T06:23:56.259Z,99.90
2018-01-18T06:26:25.797Z,99.90
2018-01-18T06:28:55.276Z,99.90
2018-01-18T06:31:24.759Z,99.90
2018-01-18T06:33:54.302Z,99.90
2018-01-18T06:36:23.793Z,99.90
2018-01-18T06:38:55.120Z,99.90
2018-01-18T06:41:24.595Z,99.90
2018-01-18T06:43:54.851Z,99.90
2018-01-18T06:46:24.382Z,99.90
2018-01-18T06:48:54.637Z,99.90
2018-01-18T06:51:24.171Z,99.90
2018-01-18T06:53:53.371Z,99.90
2018-01-18T06:56:24.802Z,99.90
2018-01-18T06:58:54.272Z,99.90
2018-01-18T07:01:23.889Z,99.90
2018-01-18T07:03:53.400Z,99.90
2018-01-18T07:06:24.487Z,99.90
2018-01-18T07:08:54.511Z,99.90
2018-01-18T07:11:24.566Z,99.90
2018-01-18T07:13:54.977Z,99.90
2018-01-18T07:16:24.459Z,99.90
2018-01-18T07:18:53.948Z,99.90
2018-01-18T07:21:23.566Z,99.90
2018-01-18T07:23:54.932Z,99.90
2018-01-18T07:26:25.180Z,99.90
2018-01-18T07:28:54.764Z,99.90
2018-01-18T07:31:24.262Z,99.90
2018-01-18T07:33:53.754Z,99.90
2018-01-18T07:36:25.856Z,99.90
2018-01-18T07:38:55.484Z,99.90
2018-01-18T07:41:24.972Z,99.90
2018-01-18T07:43:54.477Z,99.90
2018-01-18T07:46:24.056Z,99.90
2018-01-18T07:48:53.588Z,99.90
2018-01-18T07:51:25.079Z,99.90
2018-01-18T07:54:00.987Z,99.90
2018-01-18T07:56:31.236Z,99.90
2018-01-18T07:59:00.796Z,99.90
2018-01-18T08:01:30.310Z,99.90
2018-01-18T08:04:05.635Z,99.90
2018-01-18T08:06:35.126Z,99.90
2018-01-18T08:09:03.762Z,99.90
2018-01-18T08:11:34.045Z,99.90
2018-01-18T08:14:03.957Z,99.90
2018-01-18T08:16:33.795Z,99.90
2018-01-18T08:19:03.279Z,99.90
2018-01-18T08:21:32.804Z,99.90
2018-01-18T08:24:02.324Z,98.30
2018-01-18T08:26:31.867Z,96.30
2018-01-18T08:29:01.356Z,97.50
2018-01-18T08:31:30.843Z,97.90
2018-01-18T08:34:00.363Z,95.30
2018-01-18T08:36:29.884Z,94.40
2018-01-18T08:38:59.496Z,95.40
2018-01-18T08:41:28.961Z,94.90
2018-01-18T08:43:58.461Z,92.50
2018-01-18T08:46:27.950Z,93.20
2018-01-18T08:48:57.490Z,94.90
2018-01-18T08:51:26.974Z,90.50
2018-01-18T08:53:56.491Z,88.00
2018-01-18T08:56:26.028Z,90.20
2018-01-18T08:58:55.564Z,83.20
2018-01-18T09:01:25.072Z,80.90
2018-01-18T09:03:54.295Z,81.40
2018-01-18T09:06:25.598Z,81.10
2018-01-18T09:08:55.167Z,83.00
2018-01-18T09:11:25.425Z,84.70
2018-01-18T09:13:54.954Z,85.00
2018-01-18T09:16:25.217Z,88.90
2018-01-18T09:18:56.763Z,88.80
2018-01-18T09:21:26.264Z,90.70
2018-01-18T09:23:55.873Z,91.10
2018-01-18T09:26:25.695Z,88.50
2018-01-18T09:28:55.248Z,89.70
2018-01-18T09:31:24.777Z,87.70
2018-01-18T09:33:54.282Z,89.40
2018-01-18T09:36:25.587Z,90.90
2018-01-18T09:38:55.100Z,92.10
2018-01-18T09:41:26.030Z,92.60
2018-01-18T09:43:55.502Z,93.40
2018-01-18T09:46:24.997Z,90.10
2018-01-18T09:48:56.391Z,89.90
2018-01-18T09:51:27.031Z,93.00
2018-01-18T09:53:56.514Z,92.90
2018-01-18T09:56:25.996Z,93.90
2018-01-18T09:58:55.506Z,94.30
2018-01-18T10:01:25.027Z,94.50
2018-01-18T10:03:56.355Z,94.30
2018-01-18T10:06:25.856Z,94.90
2018-01-18T10:08:55.724Z,94.70
2018-01-18T10:11:25.459Z,95.50
2018-01-18T10:13:55.712Z,95.60
2018-01-18T10:16:25.202Z,95.60
2018-01-18T10:18:56.512Z,95.80
2018-01-18T10:21:25.966Z,94.70
2018-01-18T10:23:55.583Z,94.50
2018-01-18T10:26:25.115Z,94.80
2018-01-18T10:28:57.666Z,94.40
2018-01-18T10:31:27.180Z,94.60
2018-01-18T10:33:56.695Z,95.10
2018-01-18T10:36:26.940Z,96.00
2018-01-18T10:38:56.258Z,96.00
2018-01-18T10:41:25.763Z,96.60
2018-01-18T10:43:55.231Z,97.20
2018-01-18T10:46:26.413Z,97.70
2018-01-18T10:48:55.658Z,97.80
2018-01-18T10:51:25.145Z,97.50
2018-01-18T10:53:56.471Z,99.20
2018-01-18T10:56:25.974Z,99.00
2018-01-18T10:58:55.489Z,99.60
2018-01-18T11:01:25.372Z,99.20
2018-01-18T11:03:54.869Z,99.70
2018-01-18T11:06:25.128Z,99.80
2018-01-18T11:08:56.268Z,99.00
2018-01-18T11:11:26.540Z,98.90
2018-01-18T11:13:56.102Z,98.70
2018-01-18T11:16:25.686Z,98.50
2018-01-18T11:18:55.172Z,98.60
2018-01-18T11:21:26.508Z,99.10
2018-01-18T11:23:56.758Z,99.90
2018-01-18T11:26:26.263Z,99.90
2018-01-18T11:28:55.563Z,99.90
2018-01-18T11:31:25.053Z,99.90
2018-01-18T11:33:56.990Z,99.90
2018-01-18T11:36:26.547Z,99.90
2018-01-18T11:38:56.032Z,99.90
2018-01-18T11:41:25.551Z,99.90
2018-01-18T11:43:55.036Z,99.90
2018-01-18T11:46:26.610Z,99.90
2018-01-18T11:48:56.090Z,99.90
2018-01-18T11:51:25.754Z,99.90
2018-01-18T11:53:55.270Z,99.90
2018-01-18T11:56:27.541Z,99.90
2018-01-18T11:58:57.028Z,99.90
2018-01-18T12:01:28.365Z,99.90
2018-01-18T12:03:58.788Z,99.90
2018-01-18T12:06:28.396Z,99.90
2018-01-18T12:08:57.885Z,99.90
2018-01-18T12:11:27.380Z,99.90
2018-01-18T12:13:56.881Z,99.90
2018-01-18T12:16:26.422Z,99.90
2018-01-18T12:18:56.076Z,99.90
2018-01-18T12:21:26.344Z,99.90
2018-01-18T12:23:55.834Z,99.90
2018-01-18T12:26:25.320Z,99.90
2018-01-18T12:28:55.595Z,99.90
2018-01-18T12:31:25.087Z,99.90
2018-01-18T12:33:55.619Z,99.90
2018-01-18T12:36:25.102Z,99.90
2018-01-18T12:38:56.337Z,99.90
2018-01-18T12:41:25.813Z,99.90
2018-01-18T12:43:55.349Z,99.90
2018-01-18T12:46:25.439Z,99.90
2018-01-18T12:48:54.941Z,99.90
2018-01-18T12:51:27.611Z,99.90
2018-01-18T12:53:57.854Z,99.90
2018-01-18T12:56:27.061Z,99.90
2018-01-18T12:58:57.332Z,99.90
2018-01-18T13:01:26.874Z,99.90
2018-01-18T13:03:56.391Z,99.90
2018-01-18T13:06:25.937Z,99.90
2018-01-18T13:08:55.405Z,99.90
2018-01-18T13:11:24.892Z,99.90
2018-01-18T13:13:56.424Z,99.90
2018-01-18T13:16:25.935Z,99.90
2018-01-18T13:18:55.460Z,99.90
2018-01-18T13:21:24.947Z,99.90
2018-01-18T13:23:56.860Z,99.90
2018-01-18T13:26:27.090Z,99.90
2018-01-18T13:28:57.616Z,99.90
2018-01-18T13:31:27.094Z,99.90
2018-01-18T13:33:56.587Z,99.90
2018-01-18T13:36:26.074Z,99.90
2018-01-18T13:38:55.576Z,99.90
2018-01-18T13:41:25.267Z,99.90
2018-01-18T13:43:56.303Z,99.90
2018-01-18T13:46:26.164Z,99.90
2018-01-18T13:48:55.656Z,99.90
2018-01-18T13:51:25.159Z,99.90
2018-01-18T13:53:55.621Z,99.90
2018-01-18T13:56:25.161Z,99.90
2018-01-18T13:58:57.044Z,99.90
2018-01-18T14:01:26.526Z,99.90
2018-01-18T14:03:56.011Z,99.90
2018-01-18T14:06:26.609Z,99.90
2018-01-18T14:08:56.096Z,99.90
2018-01-18T14:11:25.624Z,99.90
2018-01-18T14:13:55.080Z,99.90
2018-01-18T14:16:26.692Z,99.90
2018-01-18T14:18:56.170Z,99.90
2018-01-18T14:21:25.687Z,99.90
2018-01-18T14:23:55.521Z,99.90
2018-01-18T14:26:25.847Z,99.90
2018-01-18T14:28:55.336Z,99.90
2018-01-18T14:31:24.855Z,99.90
2018-01-18T14:33:55.976Z,99.90
2018-01-18T14:36:25.483Z,99.90
2018-01-18T14:38:55.028Z,99.90
2018-01-18T14:41:26.475Z,99.90
2018-01-18T14:43:56.354Z,99.90
2018-01-18T14:46:25.824Z,99.90
2018-01-18T14:48:56.105Z,99.90
2018-01-18T14:51:25.583Z,99.90
2018-01-18T14:53:55.239Z,99.90
2018-01-18T14:56:27.596Z,99.90
2018-01-18T14:58:57.084Z,99.90
2018-01-18T15:01:26.586Z,99.90
2018-01-18T15:03:56.842Z,99.90
2018-01-18T15:06:27.091Z,99.90
2018-01-18T15:08:56.767Z,99.90
2018-01-18T15:11:26.240Z,99.90
2018-01-18T15:13:56.051Z,99.90
2018-01-18T15:16:25.852Z,99.90
2018-01-18T15:18:55.363Z,99.90
2018-01-18T15:21:24.925Z,99.90
2018-01-18T15:23:56.375Z,99.90
2018-01-18T15:26:25.858Z,99.90
2018-01-18T15:28:55.169Z,99.90
2018-01-18T15:31:26.328Z,99.90
2018-01-18T15:33:55.815Z,99.90
2018-01-18T15:36:26.077Z,99.90
2018-01-18T15:38:56.360Z,99.90
2018-01-18T15:41:25.931Z,99.90
2018-01-18T15:43:54.770Z,99.90
2018-01-18T15:46:24.406Z,99.90
2018-01-18T15:48:55.460Z,99.90
2018-01-18T15:51:25.924Z,99.90
2018-01-18T15:53:56.562Z,99.90
2018-01-18T15:56:26.068Z,99.90
2018-01-18T15:58:55.834Z,99.90
2018-01-18T16:01:25.437Z,99.90
2018-01-18T16:03:55.704Z,99.90
2018-01-18T16:06:25.200Z,99.90
2018-01-18T16:08:57.228Z,99.90
2018-01-18T16:11:26.747Z,99.90
2018-01-18T16:13:56.954Z,99.90
2018-01-18T16:16:26.557Z,99.90
2018-01-18T16:18:56.279Z,99.90
2018-01-18T16:21:25.764Z,99.90
2018-01-18T16:23:55.297Z,99.90
2018-01-18T16:26:26.301Z,99.90
2018-01-18T16:28:55.782Z,99.90
2018-01-18T16:31:25.316Z,99.90
2018-01-18T16:33:54.817Z,99.90
2018-01-18T16:36:24.326Z,99.90
2018-01-18T16:38:54.309Z,99.90
2018-01-18T16:41:26.057Z,99.90
2018-01-18T16:43:55.750Z,99.90
2018-01-18T16:46:25.191Z,99.90
2018-01-18T16:48:54.479Z,99.90
2018-01-18T16:51:24.956Z,99.90
2018-01-18T16:53:56.311Z,99.90
2018-01-18T16:56:25.663Z,99.90
2018-01-18T16:58:55.174Z,99.90
2018-01-18T17:01:25.455Z,99.90
2018-01-18T17:03:54.986Z,99.90
2018-01-18T17:06:24.696Z,99.90
2018-01-18T17:08:54.328Z,99.90
2018-01-18T17:11:25.540Z,99.90
2018-01-18T17:13:55.032Z,99.90
2018-01-18T17:16:25.444Z,99.90
2018-01-18T17:18:55.342Z,99.90
2018-01-18T17:21:24.765Z,99.90
2018-01-18T17:23:54.336Z,99.90
2018-01-18T17:26:25.595Z,99.90
2018-01-18T17:28:55.088Z,99.90
2018-01-18T17:31:27.024Z,99.90
2018-01-18T17:33:56.584Z,99.90
2018-01-18T17:36:26.166Z,99.90
2018-01-18T17:38:56.405Z,99.90
2018-01-18T17:41:25.930Z,99.90
2018-01-18T17:43:55.430Z,99.90
2018-01-18T17:46:24.980Z,99.90
2018-01-18T17:48:54.866Z,99.90
2018-01-18T17:51:24.383Z,99.90
2018-01-18T17:53:53.869Z,99.90
2018-01-18T17:56:23.415Z,99.90
2018-01-18T17:58:52.978Z,99.90
2018-01-18T18:01:22.515Z,99.90
2018-01-18T18:03:51.997Z,99.90
2018-01-18T18:06:21.839Z,99.90
2018-01-18T18:08:51.342Z,99.90
2018-01-18T18:11:21.600Z,99.90
2018-01-18T18:13:51.278Z,99.90
2018-01-18T18:16:20.938Z,99.90
2018-01-18T18:18:50.761Z,99.90
2018-01-18T18:21:20.256Z,99.90
2018-01-18T18:23:49.789Z,99.90
2018-01-18T18:26:19.289Z,99.90
2018-01-18T18:28:48.828Z,99.90
2018-01-18T18:31:18.746Z,99.90
2018-01-18T18:33:48.997Z,99.90
2018-01-18T18:36:19.789Z,99.90
2018-01-18T18:38:49.280Z,99.90
2018-01-18T18:41:18.766Z,99.90
2018-01-18T18:43:48.432Z,99.90
2018-01-18T18:46:17.916Z,99.90
2018-01-18T18:48:47.429Z,99.90
2018-01-18T18:51:16.977Z,99.90
2018-01-18T18:53:46.493Z,99.90
2018-01-18T18:56:16.193Z,99.90
2018-01-18T18:58:45.795Z,99.90
2018-01-18T19:01:15.289Z,99.90
2018-01-18T19:03:44.821Z,99.90
2018-01-18T19:06:14.515Z,99.90
2018-01-18T19:08:44.442Z,99.90
2018-01-18T19:11:14.092Z,99.90
2018-01-18T19:13:43.590Z,99.90
2018-01-18T19:16:13.098Z,99.90
2018-01-18T19:18:43.126Z,99.90
2018-01-18T19:21:12.676Z,99.90
2018-01-18T19:23:42.206Z,99.90
2018-01-18T19:26:11.735Z,99.90
2018-01-18T19:28:41.231Z,99.90
2018-01-18T19:31:11.832Z,99.90
2018-01-18T19:33:41.352Z,99.90
2018-01-18T19:36:10.853Z,99.90
2018-01-18T19:38:40.401Z,99.90
2018-01-18T19:41:10.049Z,99.90
2018-01-18T19:43:39.598Z,99.90
2018-01-18T19:46:09.121Z,99.90
2018-01-18T19:48:38.636Z,99.90
2018-01-18T19:51:08.173Z,99.90
2018-01-18T19:53:37.640Z,99.90
2018-01-18T19:56:07.394Z,99.90
2018-01-18T19:58:36.893Z,99.90
2018-01-18T20:01:08.336Z,99.90
2018-01-18T20:03:37.816Z,99.90
2018-01-18T20:06:07.313Z,99.90
2018-01-18T20:08:37.165Z,99.90
2018-01-18T20:11:06.743Z,99.90
2018-01-18T20:13:36.677Z,99.90
2018-01-18T20:16:07.669Z,99.90
2018-01-18T20:18:37.449Z,99.90
2018-01-18T20:21:06.977Z,99.90
2018-01-18T20:23:36.469Z,99.90
2018-01-18T20:26:06.139Z,99.90
2018-01-18T20:28:35.699Z,99.90
2018-01-18T20:31:05.374Z,99.90
2018-01-18T20:33:36.081Z,99.90
2018-01-18T20:36:05.572Z,99.90
2018-01-18T20:38:34.897Z,99.90
2018-01-18T20:41:05.111Z,99.90
2018-01-18T20:43:34.620Z,99.90
2018-01-18T20:46:04.217Z,99.90
2018-01-18T20:48:33.901Z,99.90
2018-01-18T20:51:03.472Z,99.90
2018-01-18T20:53:33.089Z,99.90
2018-01-18T20:56:02.681Z,99.90
2018-01-18T20:58:32.610Z,99.90
2018-01-18T21:01:02.277Z,99.90
2018-01-18T21:03:32.174Z,99.90
2018-01-18T21:06:01.753Z,99.90
2018-01-18T21:08:31.535Z,99.90
2018-01-18T21:11:01.275Z,99.90
2018-01-18T21:13:31.418Z,99.90
2018-01-18T21:16:01.201Z,99.90
2018-01-18T21:18:30.708Z,99.90
2018-01-18T21:21:00.220Z,99.90
2018-01-18T21:23:29.848Z,99.90
2018-01-18T21:25:59.728Z,99.90
2018-01-18T21:28:30.291Z,99.90
2018-01-18T21:30:59.845Z,99.90
2018-01-18T21:33:29.362Z,99.90
2018-01-18T21:35:58.864Z,99.90
2018-01-18T21:38:28.521Z,99.90
2018-01-18T21:40:58.011Z,99.90
2018-01-18T21:43:27.522Z,99.90
2018-01-18T21:45:57.487Z,99.90
2018-01-18T21:48:27.000Z,99.90
2018-01-18T21:50:56.468Z,99.90
2018-01-18T21:53:26.015Z,99.90
2018-01-18T21:55:55.544Z,99.90
2018-01-18T21:58:25.442Z,99.90
2018-01-18T22:00:54.944Z,99.90
2018-01-18T22:03:26.641Z,99.90
2018-01-18T22:05:56.377Z,99.90
2018-01-18T22:08:26.111Z,99.90
2018-01-18T22:10:55.824Z,99.90
2018-01-18T22:13:25.325Z,99.90
2018-01-18T22:15:54.803Z,99.90
2018-01-18T22:18:24.980Z,99.90
2018-01-18T22:20:56.266Z,99.90
2018-01-18T22:23:26.315Z,99.90
2018-01-18T22:25:55.792Z,99.90
2018-01-18T22:28:25.289Z,99.90
2018-01-18T22:30:55.302Z,99.90
2018-01-18T22:33:24.889Z,99.90
2018-01-18T22:35:56.001Z,99.90
2018-01-18T22:38:26.552Z,99.90
2018-01-18T22:40:56.030Z,99.90
2018-01-18T22:43:25.351Z,99.90
2018-01-18T22:45:55.057Z,99.90
2018-01-18T22:48:25.302Z,99.90
2018-01-18T22:50:54.788Z,99.90
2018-01-18T22:53:24.284Z,99.90
2018-01-18T22:55:55.468Z,99.90
2018-01-18T22:58:25.021Z,99.90
2018-01-18T23:00:57.439Z,99.90
2018-01-18T23:03:27.068Z,99.90
2018-01-18T23:05:56.573Z,99.90
2018-01-18T23:08:26.092Z,99.90
2018-01-18T23:10:55.744Z,99.90
2018-01-18T23:13:25.265Z,99.90
2018-01-18T23:15:57.481Z,99.90
2018-01-18T23:18:27.014Z,99.90
2018-01-18T23:20:56.555Z,99.90
2018-01-18T23:23:26.041Z,99.90
2018-01-18T23:25:55.258Z,99.90
2018-01-18T23:28:25.868Z,99.90
2018-01-18T23:30:55.362Z,99.90
2018-01-18T23:33:24.684Z,99.90
2018-01-18T23:35:54.576Z,99.90
2018-01-18T23:38:25.118Z,99.90
2018-01-18T23:40:57.157Z,99.90
2018-01-18T23:43:27.396Z,99.90
2018-01-18T23:45:56.628Z,99.90
2018-01-18T23:48:26.901Z,99.90
2018-01-18T23:50:56.379Z,99.90
2018-01-18T23:53:25.872Z,99.90
2018-01-18T23:55:55.368Z,99.90
2018-01-18T23:58:25.642Z,99.90
